createdAt,value
2023-01-17T00:01:11.788Z,83.90
2023-01-17T00:04:16.006Z,83.87
2023-01-17T00:07:19.941Z,83.82
2023-01-17T00:10:11.376Z,83.94
2023-01-17T00:13:02.546Z,84.04
2023-01-17T00:15:48.033Z,83.69
2023-01-17T00:18:33.609Z,83.79
2023-01-17T00:21:37.422Z,84.03
2023-01-17T00:24:41.639Z,83.79
2023-01-17T00:27:27.006Z,84.04
2023-01-17T00:30:12.839Z,83.99
2023-01-17T00:32:58.374Z,84.13
2023-01-17T00:35:43.945Z,83.98
2023-01-17T00:38:31.735Z,83.99
2023-01-17T00:41:17.435Z,84.14
2023-01-17T00:44:21.479Z,84.24
2023-01-17T00:47:25.380Z,84.18
2023-01-17T00:50:29.494Z,84.29
2023-01-17T00:53:33.653Z,83.80
2023-01-17T00:56:37.627Z,84.27
2023-01-17T00:59:41.541Z,83.87
2023-01-17T01:02:46.602Z,84.12
2023-01-17T01:05:50.532Z,84.01
2023-01-17T01:08:54.665Z,83.74
2023-01-17T01:11:58.771Z,83.97
2023-01-17T01:15:02.850Z,84.46
2023-01-17T01:18:07.296Z,84.18
2023-01-17T01:21:11.793Z,83.91
2023-01-17T01:24:15.682Z,84.15
2023-01-17T01:27:19.589Z,83.97
2023-01-17T01:30:24.250Z,83.83
2023-01-17T01:33:19.532Z,83.48
2023-01-17T01:36:07.589Z,83.56
2023-01-17T01:38:54.548Z,83.31
2023-01-17T01:41:40.373Z,83.20
2023-01-17T01:44:46.428Z,83.11
2023-01-17T01:47:40.759Z,83.12
2023-01-17T01:50:27.962Z,82.78
2023-01-17T01:53:13.178Z,82.84
2023-01-17T01:55:59.395Z,82.70
2023-01-17T01:58:48.762Z,82.48
2023-01-17T02:01:34.560Z,82.73
2023-01-17T02:04:22.108Z,82.79
2023-01-17T02:07:16.644Z,82.93
2023-01-17T02:10:03.930Z,82.34
2023-01-17T02:12:49.783Z,82.56
2023-01-17T02:16:23.624Z,82.79
2023-01-17T02:19:18.003Z,82.73
2023-01-17T02:22:09.633Z,82.82
2023-01-17T02:25:23.722Z,82.37
2023-01-17T02:28:24.327Z,83.29
2023-01-17T02:31:42.430Z,83.19
2023-01-17T02:34:51.320Z,83.20
2023-01-17T02:37:45.729Z,83.27
2023-01-17T02:41:03.669Z,83.11
2023-01-17T02:43:53.729Z,82.93
2023-01-17T02:46:47.824Z,82.85
2023-01-17T02:49:33.109Z,82.76
2023-01-17T02:52:21.629Z,82.79
2023-01-17T02:55:37.970Z,82.56
2023-01-17T02:58:45.592Z,82.06
2023-01-17T03:01:46.782Z,81.92
2023-01-17T03:04:41.239Z,82.37
2023-01-17T03:07:29.337Z,82.29
2023-01-17T03:10:17.448Z,82.88
2023-01-17T03:13:03.975Z,82.84
2023-01-17T03:15:49.546Z,83.02
2023-01-17T03:18:35.313Z,83.06
2023-01-17T03:21:22.170Z,82.87
2023-01-17T03:24:07.938Z,82.46
2023-01-17T03:26:53.969Z,82.54
2023-01-17T03:29:39.499Z,82.39
2023-01-17T03:32:24.882Z,81.94
2023-01-17T03:35:10.239Z,82.12
2023-01-17T03:37:55.623Z,82.48
2023-01-17T03:40:41.594Z,82.16
2023-01-17T03:43:26.883Z,82.31
2023-01-17T03:46:24.550Z,82.51
2023-01-17T03:49:10.286Z,82.66
2023-01-17T03:51:55.711Z,82.63
2023-01-17T03:54:41.157Z,82.97
2023-01-17T03:57:29.883Z,82.41
2023-01-17T04:00:15.929Z,82.25
2023-01-17T04:03:01.655Z,82.32
2023-01-17T04:05:46.997Z,82.28
2023-01-17T04:08:32.474Z,82.24
2023-01-17T04:11:17.844Z,82.13
2023-01-17T04:14:03.142Z,82.74
2023-01-17T04:16:48.662Z,82.64
2023-01-17T04:19:36.033Z,83.16
2023-01-17T04:22:21.308Z,82.60
2023-01-17T04:25:07.113Z,83.00
2023-01-17T04:27:53.952Z,83.11
2023-01-17T04:30:39.678Z,83.17
2023-01-17T04:33:25.318Z,82.75
2023-01-17T04:36:10.736Z,82.88
2023-01-17T04:38:56.039Z,83.22
2023-01-17T04:41:41.468Z,83.17
2023-01-17T04:44:27.046Z,83.27
2023-01-17T04:47:12.389Z,82.81
2023-01-17T04:49:57.780Z,82.61
2023-01-17T04:52:43.060Z,82.80
2023-01-17T04:55:28.398Z,82.75
2023-01-17T04:58:13.724Z,82.15
2023-01-17T05:01:07.008Z,82.60
2023-01-17T05:03:52.536Z,82.46
2023-01-17T05:06:37.936Z,82.62
2023-01-17T05:09:23.861Z,82.66
2023-01-17T05:12:09.764Z,82.66
2023-01-17T05:14:55.149Z,82.48
2023-01-17T05:17:40.409Z,82.50
2023-01-17T05:20:27.054Z,82.72
2023-01-17T05:23:12.683Z,82.66
2023-01-17T05:25:58.169Z,82.36
2023-01-17T05:28:43.524Z,82.53
2023-01-17T05:31:28.777Z,82.42
2023-01-17T05:34:14.336Z,82.60
2023-01-17T05:36:59.667Z,82.56
2023-01-17T05:39:45.049Z,82.58
2023-01-17T05:42:30.605Z,82.80
2023-01-17T05:45:17.124Z,82.96
2023-01-17T05:48:03.596Z,83.23
2023-01-17T05:50:49.342Z,83.19
2023-01-17T05:53:34.581Z,83.15
2023-01-17T05:56:19.941Z,83.31
2023-01-17T05:59:05.308Z,83.25
2023-01-17T06:01:50.596Z,83.04
2023-01-17T06:04:35.949Z,83.02
2023-01-17T06:07:21.307Z,83.26
2023-01-17T06:10:07.192Z,83.11
2023-01-17T06:13:08.158Z,83.26
2023-01-17T06:15:53.568Z,82.99
2023-01-17T06:18:38.978Z,83.01
2023-01-17T06:21:24.243Z,82.86
2023-01-17T06:24:09.630Z,82.65
2023-01-17T06:26:55.110Z,82.36
2023-01-17T06:29:40.344Z,82.45
2023-01-17T06:32:25.791Z,82.50
2023-01-17T06:35:11.226Z,82.32
2023-01-17T06:37:58.286Z,82.19
2023-01-17T06:40:44.067Z,81.71
2023-01-17T06:43:33.592Z,81.95
2023-01-17T06:46:20.101Z,81.60
2023-01-17T06:49:05.782Z,81.39
2023-01-17T06:51:51.801Z,81.76
2023-01-17T06:54:37.833Z,81.50
2023-01-17T06:57:23.700Z,81.68
2023-01-17T07:00:10.150Z,81.34
2023-01-17T07:02:56.847Z,80.74
2023-01-17T07:05:42.886Z,80.99
2023-01-17T07:08:30.583Z,81.11
2023-01-17T07:11:17.290Z,80.82
2023-01-17T07:14:02.873Z,80.85
2023-01-17T07:16:50.129Z,81.14
2023-01-17T07:19:35.822Z,80.86
2023-01-17T07:22:21.069Z,80.91
2023-01-17T07:25:06.912Z,80.82
2023-01-17T07:27:57.551Z,80.84
2023-01-17T07:30:43.276Z,80.96
2023-01-17T07:33:28.714Z,80.89
2023-01-17T07:36:14.193Z,80.82
2023-01-17T07:38:59.527Z,81.13
2023-01-17T07:41:45.016Z,81.26
2023-01-17T07:44:30.288Z,81.12
2023-01-17T07:47:15.836Z,81.04
2023-01-17T07:50:01.915Z,80.80
2023-01-17T07:52:50.668Z,80.84
2023-01-17T07:55:36.080Z,80.63
2023-01-17T07:58:22.032Z,80.74
2023-01-17T08:01:10.510Z,80.92
2023-01-17T08:03:56.358Z,80.67
2023-01-17T08:06:44.002Z,80.31
2023-01-17T08:09:30.106Z,80.22
2023-01-17T08:12:15.956Z,80.55
2023-01-17T08:15:01.509Z,80.31
2023-01-17T08:17:48.926Z,80.39
2023-01-17T08:20:34.455Z,80.25
2023-01-17T08:23:20.225Z,80.42
2023-01-17T08:26:05.536Z,80.49
2023-01-17T08:29:00.472Z,80.53
2023-01-17T08:31:46.384Z,80.59
2023-01-17T08:34:33.333Z,81.11
2023-01-17T08:37:18.915Z,80.78
2023-01-17T08:40:05.789Z,80.60
2023-01-17T08:42:56.017Z,80.81
2023-01-17T08:45:44.807Z,80.89
2023-01-17T08:48:30.728Z,81.00
2023-01-17T08:51:16.403Z,80.49
2023-01-17T08:54:01.945Z,80.39
2023-01-17T08:56:47.743Z,80.56
2023-01-17T08:59:33.206Z,80.57
2023-01-17T09:02:20.031Z,80.70
2023-01-17T09:05:06.118Z,80.48
2023-01-17T09:07:51.508Z,80.21
2023-01-17T09:10:36.978Z,79.88
2023-01-17T09:13:22.772Z,80.18
2023-01-17T09:16:09.673Z,80.61
2023-01-17T09:18:56.565Z,80.71
2023-01-17T09:21:41.929Z,80.29
2023-01-17T09:24:27.308Z,80.39
2023-01-17T09:27:12.814Z,80.23
2023-01-17T09:29:58.278Z,80.22
2023-01-17T09:32:43.880Z,80.08
2023-01-17T09:35:29.215Z,80.14
2023-01-17T09:38:14.893Z,80.36
2023-01-17T09:41:02.939Z,80.31
2023-01-17T09:44:11.117Z,80.46
2023-01-17T09:47:02.930Z,80.45
2023-01-17T09:49:49.255Z,81.02
2023-01-17T09:52:35.283Z,80.48
2023-01-17T09:55:21.303Z,80.60
2023-01-17T09:58:12.805Z,80.59
2023-01-17T10:01:08.120Z,80.54
2023-01-17T10:04:45.666Z,80.47
2023-01-17T10:07:44.900Z,80.94
2023-01-17T10:10:42.704Z,80.56
2023-01-17T10:13:53.658Z,80.63
2023-01-17T10:16:58.269Z,80.46
2023-01-17T10:20:00.560Z,80.48
2023-01-17T10:23:30.347Z,80.77
2023-01-17T10:26:24.174Z,80.24
2023-01-17T10:29:20.099Z,80.63
2023-01-17T10:32:11.601Z,80.85
2023-01-17T10:35:03.061Z,81.97
2023-01-17T10:37:50.345Z,81.59
2023-01-17T10:40:44.833Z,81.19
2023-01-17T10:44:08.765Z,80.94
2023-01-17T10:47:20.453Z,80.36
2023-01-17T10:50:06.256Z,80.33
2023-01-17T10:53:01.349Z,80.77
2023-01-17T10:55:56.077Z,80.56
2023-01-17T10:58:41.532Z,81.20
2023-01-17T11:01:27.002Z,81.55
2023-01-17T11:04:21.212Z,81.35
2023-01-17T11:07:19.387Z,81.15
2023-01-17T11:10:05.169Z,80.76
2023-01-17T11:12:50.883Z,81.16
2023-01-17T11:15:39.567Z,81.76
2023-01-17T11:18:31.676Z,81.70
2023-01-17T11:21:23.304Z,81.67
2023-01-17T11:24:12.200Z,81.96
2023-01-17T11:26:58.479Z,81.23
2023-01-17T11:29:44.260Z,81.03
2023-01-17T11:32:32.573Z,80.87
2023-01-17T11:35:44.742Z,80.76
2023-01-17T11:38:30.453Z,80.86
2023-01-17T11:41:21.636Z,81.03
2023-01-17T11:44:33.371Z,81.38
2023-01-17T11:47:21.664Z,80.97
2023-01-17T11:50:23.609Z,80.53
2023-01-17T11:53:21.501Z,81.12
2023-01-17T11:56:23.689Z,80.34
2023-01-17T11:59:24.984Z,79.78
2023-01-17T12:02:39.827Z,79.60
2023-01-17T12:05:53.472Z,79.45
2023-01-17T12:08:44.874Z,78.89
2023-01-17T12:12:08.027Z,79.00
2023-01-17T12:14:56.362Z,79.09
2023-01-17T12:17:53.914Z,77.94
2023-01-17T12:21:10.879Z,77.86
2023-01-17T12:24:25.536Z,77.22
2023-01-17T12:27:14.024Z,77.76
2023-01-17T12:30:15.427Z,77.76
2023-01-17T12:33:20.630Z,77.89
2023-01-17T12:36:21.207Z,77.92
2023-01-17T12:39:11.809Z,77.90
2023-01-17T12:42:22.799Z,78.33
2023-01-17T12:45:20.250Z,78.86
2023-01-17T12:48:11.823Z,78.60
2023-01-17T12:51:07.764Z,78.60
2023-01-17T12:54:09.660Z,78.35
2023-01-17T12:57:09.068Z,77.92
2023-01-17T13:00:03.828Z,78.37
2023-01-17T13:03:24.695Z,78.75
2023-01-17T13:06:20.023Z,77.83
2023-01-17T13:09:05.726Z,78.08
2023-01-17T13:12:01.153Z,78.50
2023-01-17T13:14:47.379Z,78.05
2023-01-17T13:18:09.523Z,78.47
2023-01-17T13:21:15.594Z,78.17
2023-01-17T13:24:03.844Z,78.33
2023-01-17T13:26:55.269Z,78.10
2023-01-17T13:30:19.611Z,77.67
2023-01-17T13:33:39.339Z,77.93
2023-01-17T13:37:13.431Z,77.73
2023-01-17T13:39:58.676Z,76.88
2023-01-17T13:42:59.599Z,76.52
2023-01-17T13:45:59.747Z,76.46
2023-01-17T13:48:44.995Z,76.55
2023-01-17T13:52:19.406Z,76.84
2023-01-17T13:55:07.119Z,76.41
2023-01-17T13:57:52.617Z,76.79
2023-01-17T14:00:44.183Z,76.23
2023-01-17T14:03:54.472Z,77.77
2023-01-17T14:06:48.956Z,76.37
2023-01-17T14:09:42.309Z,76.10
2023-01-17T14:12:32.491Z,76.36
2023-01-17T14:15:23.869Z,76.60
2023-01-17T14:18:42.670Z,75.44
2023-01-17T14:21:35.504Z,75.84
2023-01-17T14:24:21.751Z,75.33
2023-01-17T14:27:22.892Z,75.37
2023-01-17T14:30:37.312Z,75.53
2023-01-17T14:33:43.738Z,75.76
2023-01-17T14:36:32.922Z,76.10
2023-01-17T14:39:22.184Z,76.05
2023-01-17T14:42:13.454Z,75.90
2023-01-17T14:45:08.785Z,75.95
2023-01-17T14:47:57.424Z,75.71
2023-01-17T14:50:44.700Z,75.47
2023-01-17T14:53:32.553Z,75.58
2023-01-17T14:56:18.373Z,75.34
2023-01-17T14:59:16.996Z,76.00
2023-01-17T15:02:08.768Z,75.44
2023-01-17T15:04:55.348Z,75.30
2023-01-17T15:07:43.007Z,75.48
2023-01-17T15:10:31.624Z,75.94
2023-01-17T15:13:29.802Z,75.54
2023-01-17T15:16:23.675Z,75.75
2023-01-17T15:19:14.397Z,75.74
2023-01-17T15:21:59.843Z,76.00
2023-01-17T15:24:46.710Z,75.51
2023-01-17T15:27:32.694Z,75.67
2023-01-17T15:30:18.865Z,76.08
2023-01-17T15:33:04.511Z,75.79
2023-01-17T15:35:57.832Z,76.00
2023-01-17T15:38:56.961Z,76.09
2023-01-17T15:41:42.555Z,75.93
2023-01-17T15:44:42.656Z,75.72
2023-01-17T15:47:36.049Z,76.45
2023-01-17T15:50:27.716Z,76.93
2023-01-17T15:53:36.180Z,76.96
2023-01-17T15:56:32.569Z,76.83
2023-01-17T15:59:32.108Z,77.42
2023-01-17T16:02:43.699Z,76.91
2023-01-17T16:05:32.968Z,77.36
2023-01-17T16:08:39.841Z,77.04
2023-01-17T16:11:25.508Z,77.12
2023-01-17T16:14:10.846Z,76.99
2023-01-17T16:17:03.762Z,77.12
2023-01-17T16:19:50.008Z,76.73
2023-01-17T16:22:35.553Z,76.89
2023-01-17T16:25:22.979Z,77.35
2023-01-17T16:28:08.659Z,77.56
2023-01-17T16:30:54.676Z,77.78
2023-01-17T16:33:42.319Z,77.98
2023-01-17T16:36:27.971Z,78.01
2023-01-17T16:39:15.476Z,77.84
2023-01-17T16:42:06.513Z,78.10
2023-01-17T16:44:53.189Z,78.11
2023-01-17T16:47:47.442Z,78.00
2023-01-17T16:50:33.879Z,77.93
2023-01-17T16:53:25.008Z,78.34
2023-01-17T16:56:14.886Z,77.65
2023-01-17T16:59:00.405Z,77.74
2023-01-17T17:01:47.080Z,78.04
2023-01-17T17:04:32.884Z,77.57
2023-01-17T17:07:18.513Z,77.90
2023-01-17T17:10:04.454Z,77.84
2023-01-17T17:12:50.308Z,78.00
2023-01-17T17:15:35.902Z,77.90
2023-01-17T17:18:21.565Z,78.11
2023-01-17T17:21:07.015Z,78.02
2023-01-17T17:23:58.086Z,78.12
2023-01-17T17:26:44.662Z,78.81
2023-01-17T17:29:30.192Z,78.74
2023-01-17T17:32:15.498Z,78.62
2023-01-17T17:35:00.959Z,78.25
2023-01-17T17:37:46.147Z,78.21
2023-01-17T17:40:34.483Z,78.38
2023-01-17T17:43:20.901Z,79.33
2023-01-17T17:46:07.331Z,79.04
2023-01-17T17:48:53.519Z,78.91
2023-01-17T17:51:40.405Z,78.58
2023-01-17T17:54:27.378Z,78.20
2023-01-17T17:57:16.347Z,78.20
2023-01-17T18:00:09.416Z,78.05
2023-01-17T18:02:58.620Z,77.64
2023-01-17T18:05:46.798Z,78.07
2023-01-17T18:08:35.197Z,77.83
2023-01-17T18:11:26.871Z,78.23
2023-01-17T18:14:15.397Z,78.24
2023-01-17T18:17:00.963Z,78.01
2023-01-17T18:19:46.770Z,78.02
2023-01-17T18:22:33.727Z,77.90
2023-01-17T18:25:19.923Z,77.94
2023-01-17T18:28:05.282Z,77.23
2023-01-17T18:30:50.774Z,77.10
2023-01-17T18:33:38.642Z,77.04
2023-01-17T18:36:24.973Z,77.16
2023-01-17T18:39:25.621Z,77.01
2023-01-17T18:42:12.010Z,77.13
2023-01-17T18:44:57.338Z,76.82
2023-01-17T18:47:42.702Z,76.70
2023-01-17T18:50:28.305Z,76.77
2023-01-17T18:53:13.991Z,77.02
2023-01-17T18:56:02.983Z,77.05
2023-01-17T18:58:50.472Z,77.05
2023-01-17T19:01:36.587Z,76.85
2023-01-17T19:04:22.615Z,77.09
2023-01-17T19:07:08.502Z,77.17
2023-01-17T19:09:54.775Z,77.00
2023-01-17T19:12:40.465Z,77.97
2023-01-17T19:15:25.788Z,77.63
2023-01-17T19:18:11.400Z,78.32
2023-01-17T19:21:11.331Z,78.88
2023-01-17T19:23:57.937Z,79.04
2023-01-17T19:26:43.569Z,79.42
2023-01-17T19:29:29.374Z,79.70
2023-01-17T19:32:15.344Z,79.91
2023-01-17T19:35:01.973Z,80.15
2023-01-17T19:37:50.957Z,80.13
2023-01-17T19:40:37.042Z,80.29
2023-01-17T19:43:23.294Z,80.47
2023-01-17T19:46:11.027Z,80.23
2023-01-17T19:48:58.078Z,80.55
2023-01-17T19:51:44.616Z,80.57
2023-01-17T19:54:33.398Z,80.69
2023-01-17T19:57:22.154Z,80.56
2023-01-17T20:00:12.389Z,79.96
2023-01-17T20:02:59.226Z,79.56
2023-01-17T20:05:46.236Z,79.53
2023-01-17T20:08:33.632Z,79.42
2023-01-17T20:11:22.322Z,79.15
2023-01-17T20:14:13.650Z,79.20
2023-01-17T20:16:59.082Z,79.42
2023-01-17T20:19:46.369Z,79.26
2023-01-17T20:22:31.720Z,79.36
2023-01-17T20:25:17.352Z,79.62
2023-01-17T20:28:04.932Z,79.72
2023-01-17T20:30:50.224Z,80.16
2023-01-17T20:33:36.748Z,80.07
2023-01-17T20:36:24.842Z,80.34
2023-01-17T20:39:13.034Z,80.49
2023-01-17T20:41:58.622Z,80.37
2023-01-17T20:44:45.881Z,80.18
2023-01-17T20:47:32.066Z,80.29
2023-01-17T20:50:20.389Z,80.29
2023-01-17T20:53:05.770Z,80.32
2023-01-17T20:55:56.780Z,80.40
2023-01-17T20:58:42.469Z,80.11
2023-01-17T21:01:28.500Z,80.04
2023-01-17T21:04:15.029Z,80.17
2023-01-17T21:07:00.800Z,80.23
2023-01-17T21:09:46.102Z,80.30
2023-01-17T21:12:31.819Z,79.99
2023-01-17T21:15:17.611Z,80.08
2023-01-17T21:18:02.978Z,80.11
2023-01-17T21:20:49.204Z,79.45
2023-01-17T21:23:35.836Z,79.66
2023-01-17T21:26:25.634Z,79.40
2023-01-17T21:29:12.471Z,79.54
2023-01-17T21:31:58.205Z,79.42
2023-01-17T21:34:43.761Z,79.20
2023-01-17T21:37:29.348Z,79.63
2023-01-17T21:40:15.449Z,79.45
2023-01-17T21:43:00.863Z,79.55
2023-01-17T21:45:46.972Z,79.29
2023-01-17T21:48:35.537Z,79.28
2023-01-17T21:51:24.330Z,79.52
2023-01-17T21:54:09.519Z,79.37
2023-01-17T21:57:13.564Z,78.98
2023-01-17T21:59:58.958Z,78.86
2023-01-17T22:02:46.612Z,78.53
2023-01-17T22:05:33.688Z,78.71
2023-01-17T22:08:18.970Z,78.72
2023-01-17T22:11:18.534Z,78.88
2023-01-17T22:14:04.674Z,79.01
2023-01-17T22:16:50.395Z,79.27
2023-01-17T22:19:36.094Z,79.10
2023-01-17T22:22:21.650Z,79.47
2023-01-17T22:25:07.365Z,79.83
2023-01-17T22:27:53.178Z,80.10
2023-01-17T22:30:38.753Z,80.22
2023-01-17T22:33:24.090Z,80.05
2023-01-17T22:36:10.808Z,80.52
2023-01-17T22:38:56.884Z,80.99
2023-01-17T22:41:42.879Z,81.22
2023-01-17T22:44:28.118Z,81.46
2023-01-17T22:47:14.218Z,81.32
2023-01-17T22:49:59.864Z,81.50
2023-01-17T22:52:45.326Z,81.24
2023-01-17T22:55:31.046Z,80.88
2023-01-17T22:58:16.634Z,81.22
2023-01-17T23:01:07.150Z,80.74
2023-01-17T23:03:55.698Z,80.43
2023-01-17T23:06:41.918Z,80.64
2023-01-17T23:09:27.806Z,80.22
2023-01-17T23:12:13.467Z,80.06
2023-01-17T23:15:31.662Z,80.27
2023-01-17T23:18:35.983Z,80.44
2023-01-17T23:21:21.444Z,80.31
2023-01-17T23:24:06.819Z,80.63
2023-01-17T23:27:10.825Z,80.73
2023-01-17T23:29:56.524Z,80.35
2023-01-17T23:32:51.015Z,81.09
2023-01-17T23:35:41.698Z,80.28
2023-01-17T23:38:30.468Z,80.18
2023-01-17T23:41:34.649Z,79.79
2023-01-17T23:44:20.096Z,80.01
2023-01-17T23:47:05.563Z,79.50
2023-01-17T23:49:50.931Z,79.42
2023-01-17T23:52:36.276Z,79.23
2023-01-17T23:55:21.864Z,79.81
2023-01-17T23:58:11.047Z,79.62
